Central Bridge, NY

1:58 PM EDT on September 01, 2015 (GMT -0400)
Schoharie Village | | Change Station
CLOSE
Current Station
Personal Weather Station
Location: Schoharie, NY
Elevation: 597 ft
Nearby Weather Stations

Elev 597 ft 42.67 °N, 74.30 °W | Updated 2 seconds ago

Mostly Cloudy
Mostly Cloudy
81.1 °F
Feels Like 83 °F
N
2.5
Wind Variable Wind from NNE
Gusts 4.9 mph

Today
High -- | Low -- °F
--% Chance of Precip.
Yesterday
High -- | Low -- °F
Precip. -- in
6:21 AM 7:32 PM
Waning Gibbous, 87% visible
Pressure 30.04 in
Visibility 10.0 miles
Clouds Few 3500 ft
Heat Index 83 °F
Dew Point 67 °F
Humidity 62%
Rainfall 0.01 in
Snow Depth Not available.
UV 6.0 out of 12
Pollen 9.30 out of 12
Air Quality Not available.
Flu Activity Not available.
METAR KALB 011751Z 00000KT 10SM FEW035 28/18 A3005 RMK AO2 SLP173 T02830178 10283 20200 56011
Pressure 30.04 in
Visibility 10.0 miles
Clouds Few 3500 ft
Heat Index 83 °F
Dew Point 67 °F
Humidity 62%
Rainfall 0.01 in
Snow Depth Not available.
UV 6.0 out of 12
Pollen 9.30 out of 12
Air Quality Not available.
Flu Activity Not available.
METAR KALB 011751Z 00000KT 10SM FEW035 28/18 A3005 RMK AO2 SLP173 T02830178 10283 20200 56011

10-Day Weather Forecast

×

Almanac

Astronomy

Sep. 01, 2015 Rise Set
Actual Time
Civil Twilight
Nautical Twilight
Astronomical Twilight
Moon
Length of Visible Light
Length of Day
Tomorrow will be .
, % of the Moon is Illuminated

Today's Extremes

State Highs State Lows

Community

WunderPhotos

Upload Photos

1,851,569 photos uploaded!

WunderBlogs® & News

Nearby

Air Quality

  Air Quality AQ Index Pollutant
Not available.

Snow Depth

Station Depth Elevation

Earthquake Activity

City Distance Mag. Time & Date
Minimum magnitude displayed is 2.5.

Coastal Water Temperatures

Place Temperature

Stations

Nearby Weather Stations

Station Location Temp. Windchill Dew Point Humidity Wind Precip. Elev Updated Type